| time (UTC) | temp C | wind direction | speed KPH | gust KPH | rain 1hr cm | rain 24hr cm | rain mn cm | humidity % | barometer mb |
| 20260505153319 | 18 | 91 | 4.8 | 12.9 | 0.00 | 0.86 | 0.86 | 73 | 1004.6 |
| 20260505150313 | 18 | 243 | 1.6 | 8.0 | 0.00 | 0.86 | 0.86 | 57 | 1004.8 |
| 20260505140322 | 16 | 97 | 0.0 | 3.2 | 0.00 | 0.86 | 0.86 | 24 | 1005.6 |
| 20260505130310 | 16 | 272 | 0.0 | 0.0 | 0.00 | 0.86 | 0.86 | 17 | 1005.1 |
| 20260505123325 | 16 | 281 | 0.0 | 1.6 | 0.00 | 0.86 | 0.86 | 18 | 1004.9 |
| 20260505020324 | 21 | 141 | 0.0 | 4.8 | 0.00 | 0.00 | 0.00 | 62 | 1005.3 |
| 20260505013318 | 21 | 210 | 0.0 | 4.8 | 0.00 | 0.00 | 0.00 | 61 | 1004.7 |
| 20260505010314 | 22 | 177 | 3.2 | 8.0 | 0.00 | 0.00 | 0.00 | 58 | 1004.4 |
| 20260505003328 | 23 | 76 | 4.8 | 12.9 | 0.00 | 0.00 | 0.00 | 55 | 1004.1 |
| 20260505000323 | 25 | 153 | 9.7 | 17.7 | 0.00 | 0.00 | 0.00 | 52 | 1004.0 |
| 20260504233318 | 26 | 136 | 6.4 | 17.7 | 0.00 | 0.00 | 0.00 | 49 | 1003.9 |
| 20260504230333 | 26 | 155 | 6.4 | 14.5 | 0.00 | 0.00 | 0.00 | 47 | 1004.1 |
| 20260504223326 | 26 | 260 | 6.4 | 19.3 | 0.00 | 0.00 | 0.00 | 49 | 1004.3 |
| 20260504220321 | 26 | 263 | 12.9 | 19.3 | 0.00 | 0.00 | 0.00 | 48 | 1004.5 |
| 20260504213316 | 26 | 156 | 14.5 | 25.7 | 0.00 | 0.00 | 0.00 | 45 | 1004.7 |
| 20260504210331 | 26 | 228 | 14.5 | 24.1 | 0.00 | 0.00 | 0.00 | 47 | 1004.8 |
| 20260504203346 | 26 | 183 | 14.5 | 29.0 | 0.00 | 0.00 | 0.00 | 48 | 1005.3 |
| 20260504200319 | 26 | 235 | 14.5 | 27.4 | 0.00 | 0.00 | 0.00 | 47 | 1005.4 |
| 20260504193348 | 26 | 242 | 16.1 | 29.0 | 0.00 | 0.00 | 0.00 | 50 | 1005.9 |
| 20260504190321 | 25 | 181 | 16.1 | 27.4 | 0.00 | 0.00 | 0.00 | 50 | 1006.1 |
| 20260504183316 | 25 | 203 | 17.7 | 27.4 | 0.00 | 0.00 | 0.00 | 52 | 1006.6 |
| 20260504180331 | 24 | 230 | 12.9 | 29.0 | 0.00 | 0.00 | 0.00 | 53 | 1006.8 |
| 20260504173325 | 25 | 236 | 12.9 | 24.1 | 0.00 | 0.00 | 0.00 | 52 | 1006.8 |
| 20260504170320 | 24 | 205 | 17.7 | 27.4 | 0.00 | 0.00 | 0.00 | 49 | 1007.2 |
| 20260504160329 | 22 | 255 | 17.7 | 30.6 | 0.00 | 0.00 | 0.00 | 52 | 1007.8 |